sensor_id;sensor_type;location;lat;lon;timestamp;P1;durP1;ratioP1;P2;durP2;ratioP2
4694;SDS011;2361;49.540;8.390;2024-03-25T00:00:24;2.20;;;2.00;;
4694;SDS011;2361;49.540;8.390;2024-03-25T00:02:45;3.30;;;2.28;;
4694;SDS011;2361;49.540;8.390;2024-03-25T00:05:06;3.30;;;2.20;;
4694;SDS011;2361;49.540;8.390;2024-03-25T00:07:29;2.13;;;2.00;;
4694;SDS011;2361;49.540;8.390;2024-03-25T00:09:50;2.23;;;2.13;;
4694;SDS011;2361;49.540;8.390;2024-03-25T00:12:11;2.65;;;2.30;;
4694;SDS011;2361;49.540;8.390;2024-03-25T00:14:31;3.10;;;2.10;;
4694;SDS011;2361;49.540;8.390;2024-03-25T00:16:52;1.80;;;1.70;;
4694;SDS011;2361;49.540;8.390;2024-03-25T00:19:13;2.70;;;2.00;;
4694;SDS011;2361;49.540;8.390;2024-03-25T00:21:34;4.03;;;2.10;;
4694;SDS011;2361;49.540;8.390;2024-03-25T00:23:55;2.90;;;2.23;;
4694;SDS011;2361;49.540;8.390;2024-03-25T00:26:19;2.90;;;2.08;;
4694;SDS011;2361;49.540;8.390;2024-03-25T00:28:40;2.58;;;2.20;;
4694;SDS011;2361;49.540;8.390;2024-03-25T00:31:01;2.10;;;2.00;;
4694;SDS011;2361;49.540;8.390;2024-03-25T00:33:21;3.70;;;2.30;;
4694;SDS011;2361;49.540;8.390;2024-03-25T00:35:43;2.80;;;2.20;;
4694;SDS011;2361;49.540;8.390;2024-03-25T00:38:06;2.85;;;2.33;;
4694;SDS011;2361;49.540;8.390;2024-03-25T00:40:27;4.30;;;2.25;;
4694;SDS011;2361;49.540;8.390;2024-03-25T00:42:48;2.60;;;2.35;;
4694;SDS011;2361;49.540;8.390;2024-03-25T00:45:09;2.30;;;2.10;;
4694;SDS011;2361;49.540;8.390;2024-03-25T00:47:30;2.42;;;2.20;;
4694;SDS011;2361;49.540;8.390;2024-03-25T00:49:51;3.92;;;2.20;;
4694;SDS011;2361;49.540;8.390;2024-03-25T00:52:11;2.22;;;1.88;;
4694;SDS011;2361;49.540;8.390;2024-03-25T00:54:32;2.97;;;2.20;;
4694;SDS011;2361;49.540;8.390;2024-03-25T00:56:53;2.40;;;2.20;;
4694;SDS011;2361;49.540;8.390;2024-03-25T00:59:14;2.00;;;1.90;;
4694;SDS011;2361;49.540;8.390;2024-03-25T01:01:34;2.20;;;2.00;;
4694;SDS011;2361;49.540;8.390;2024-03-25T01:03:58;2.80;;;2.00;;
4694;SDS011;2361;49.540;8.390;2024-03-25T01:06:19;3.55;;;2.17;;
4694;SDS011;2361;49.540;8.390;2024-03-25T01:08:40;2.60;;;2.08;;
4694;SDS011;2361;49.540;8.390;2024-03-25T01:11:01;2.20;;;2.00;;
4694;SDS011;2361;49.540;8.390;2024-03-25T01:13:21;3.40;;;2.00;;
4694;SDS011;2361;49.540;8.390;2024-03-25T01:15:42;3.50;;;2.20;;
4694;SDS011;2361;49.540;8.390;2024-03-25T01:18:03;1.98;;;1.88;;
4694;SDS011;2361;49.540;8.390;2024-03-25T01:20:24;2.10;;;1.90;;
4694;SDS011;2361;49.540;8.390;2024-03-25T01:22:45;3.83;;;2.27;;
4694;SDS011;2361;49.540;8.390;2024-03-25T01:25:06;2.85;;;2.00;;
4694;SDS011;2361;49.540;8.390;2024-03-25T01:27:27;2.30;;;2.20;;
4694;SDS011;2361;49.540;8.390;2024-03-25T01:29:48;1.97;;;1.77;;
4694;SDS011;2361;49.540;8.390;2024-03-25T01:32:09;2.00;;;1.90;;
4694;SDS011;2361;49.540;8.390;2024-03-25T01:34:29;3.58;;;2.20;;
4694;SDS011;2361;49.540;8.390;2024-03-25T01:36:50;2.47;;;2.13;;
4694;SDS011;2361;49.540;8.390;2024-03-25T01:39:11;3.40;;;2.58;;
4694;SDS011;2361;49.540;8.390;2024-03-25T01:41:32;2.30;;;2.10;;
4694;SDS011;2361;49.540;8.390;2024-03-25T01:43:52;2.83;;;2.10;;
4694;SDS011;2361;49.540;8.390;2024-03-25T01:46:14;3.90;;;2.27;;
4694;SDS011;2361;49.540;8.390;2024-03-25T01:48:36;4.40;;;2.23;;
4694;SDS011;2361;49.540;8.390;2024-03-25T01:50:57;4.40;;;2.20;;
4694;SDS011;2361;49.540;8.390;2024-03-25T01:53:20;2.60;;;2.20;;
4694;SDS011;2361;49.540;8.390;2024-03-25T01:55:41;2.80;;;2.40;;
4694;SDS011;2361;49.540;8.390;2024-03-25T01:58:03;2.20;;;2.10;;
4694;SDS011;2361;49.540;8.390;2024-03-25T02:00:25;2.90;;;2.30;;
4694;SDS011;2361;49.540;8.390;2024-03-25T02:02:47;3.17;;;2.40;;
4694;SDS011;2361;49.540;8.390;2024-03-25T02:05:08;2.30;;;2.10;;
4694;SDS011;2361;49.540;8.390;2024-03-25T02:07:29;3.05;;;2.10;;
4694;SDS011;2361;49.540;8.390;2024-03-25T02:09:51;3.15;;;1.90;;
4694;SDS011;2361;49.540;8.390;2024-03-25T02:12:12;2.10;;;2.00;;
4694;SDS011;2361;49.540;8.390;2024-03-25T02:14:33;2.80;;;2.00;;
4694;SDS011;2361;49.540;8.390;2024-03-25T02:16:54;2.67;;;2.20;;
4694;SDS011;2361;49.540;8.390;2024-03-25T02:19:15;2.20;;;2.10;;
4694;SDS011;2361;49.540;8.390;2024-03-25T02:21:37;3.10;;;2.20;;
4694;SDS011;2361;49.540;8.390;2024-03-25T02:23:58;2.70;;;2.00;;
4694;SDS011;2361;49.540;8.390;2024-03-25T02:26:20;2.40;;;2.20;;
4694;SDS011;2361;49.540;8.390;2024-03-25T02:28:43;2.70;;;2.33;;
4694;SDS011;2361;49.540;8.390;2024-03-25T02:31:04;2.30;;;2.10;;
4694;SDS011;2361;49.540;8.390;2024-03-25T02:33:25;2.77;;;2.30;;
4694;SDS011;2361;49.540;8.390;2024-03-25T02:35:45;3.50;;;2.47;;
4694;SDS011;2361;49.540;8.390;2024-03-25T02:38:06;2.20;;;2.10;;
4694;SDS011;2361;49.540;8.390;2024-03-25T02:40:28;4.40;;;2.50;;
4694;SDS011;2361;49.540;8.390;2024-03-25T02:42:50;2.40;;;2.20;;
4694;SDS011;2361;49.540;8.390;2024-03-25T02:45:11;2.80;;;1.90;;
4694;SDS011;2361;49.540;8.390;2024-03-25T02:47:31;2.73;;;2.40;;
4694;SDS011;2361;49.540;8.390;2024-03-25T02:49:52;2.50;;;2.30;;
4694;SDS011;2361;49.540;8.390;2024-03-25T02:52:13;3.00;;;2.20;;
4694;SDS011;2361;49.540;8.390;2024-03-25T02:54:34;5.00;;;2.45;;
4694;SDS011;2361;49.540;8.390;2024-03-25T02:56:55;3.30;;;2.40;;
4694;SDS011;2361;49.540;8.390;2024-03-25T02:59:16;2.67;;;2.08;;
4694;SDS011;2361;49.540;8.390;2024-03-25T03:01:37;2.30;;;2.20;;
4694;SDS011;2361;49.540;8.390;2024-03-25T03:03:57;4.70;;;2.55;;
4694;SDS011;2361;49.540;8.390;2024-03-25T03:06:18;3.40;;;2.50;;
4694;SDS011;2361;49.540;8.390;2024-03-25T03:08:39;3.13;;;2.03;;
4694;SDS011;2361;49.540;8.390;2024-03-25T03:11:00;4.30;;;2.60;;
4694;SDS011;2361;49.540;8.390;2024-03-25T03:13:21;2.50;;;2.30;;
4694;SDS011;2361;49.540;8.390;2024-03-25T03:15:45;2.80;;;2.60;;
4694;SDS011;2361;49.540;8.390;2024-03-25T03:18:05;2.00;;;1.90;;
4694;SDS011;2361;49.540;8.390;2024-03-25T03:20:26;3.25;;;2.70;;
4694;SDS011;2361;49.540;8.390;2024-03-25T03:22:47;4.33;;;2.40;;
4694;SDS011;2361;49.540;8.390;2024-03-25T03:25:08;2.60;;;2.40;;
4694;SDS011;2361;49.540;8.390;2024-03-25T03:27:28;7.18;;;2.47;;
4694;SDS011;2361;49.540;8.390;2024-03-25T03:29:50;3.15;;;2.13;;
4694;SDS011;2361;49.540;8.390;2024-03-25T03:32:11;2.55;;;2.35;;
4694;SDS011;2361;49.540;8.390;2024-03-25T03:34:32;4.55;;;2.60;;
4694;SDS011;2361;49.540;8.390;2024-03-25T03:36:53;4.47;;;2.60;;
4694;SDS011;2361;49.540;8.390;2024-03-25T03:39:14;4.40;;;2.40;;
4694;SDS011;2361;49.540;8.390;2024-03-25T03:41:36;4.25;;;2.50;;
4694;SDS011;2361;49.540;8.390;2024-03-25T03:43:56;3.10;;;2.50;;
4694;SDS011;2361;49.540;8.390;2024-03-25T03:46:17;2.50;;;2.30;;
4694;SDS011;2361;49.540;8.390;2024-03-25T03:48:38;2.90;;;2.40;;
4694;SDS011;2361;49.540;8.390;2024-03-25T03:50:59;3.30;;;2.33;;
4694;SDS011;2361;49.540;8.390;2024-03-25T03:53:20;2.50;;;2.30;;
4694;SDS011;2361;49.540;8.390;2024-03-25T03:55:40;3.15;;;2.40;;
4694;SDS011;2361;49.540;8.390;2024-03-25T03:58:02;4.13;;;2.40;;
4694;SDS011;2361;49.540;8.390;2024-03-25T04:00:23;4.07;;;2.55;;
4694;SDS011;2361;49.540;8.390;2024-03-25T04:02:43;3.60;;;2.50;;
4694;SDS011;2361;49.540;8.390;2024-03-25T04:05:04;3.63;;;2.63;;
4694;SDS011;2361;49.540;8.390;2024-03-25T04:07:25;2.20;;;2.10;;
4694;SDS011;2361;49.540;8.390;2024-03-25T04:09:49;3.10;;;2.70;;
4694;SDS011;2361;49.540;8.390;2024-03-25T04:12:09;4.75;;;2.85;;
4694;SDS011;2361;49.540;8.390;2024-03-25T04:14:31;3.50;;;2.40;;
4694;SDS011;2361;49.540;8.390;2024-03-25T04:16:53;4.43;;;2.90;;
4694;SDS011;2361;49.540;8.390;2024-03-25T04:19:14;3.05;;;2.70;;
4694;SDS011;2361;49.540;8.390;2024-03-25T04:21:35;3.53;;;3.10;;
4694;SDS011;2361;49.540;8.390;2024-03-25T04:23:56;3.73;;;2.83;;
4694;SDS011;2361;49.540;8.390;2024-03-25T04:26:20;3.10;;;2.80;;
4694;SDS011;2361;49.540;8.390;2024-03-25T04:28:43;4.05;;;2.70;;
4694;SDS011;2361;49.540;8.390;2024-03-25T04:31:07;3.95;;;2.88;;
4694;SDS011;2361;49.540;8.390;2024-03-25T04:33:31;4.72;;;3.08;;
4694;SDS011;2361;49.540;8.390;2024-03-25T04:35:52;5.77;;;3.10;;
4694;SDS011;2361;49.540;8.390;2024-03-25T04:38:15;3.45;;;3.10;;
4694;SDS011;2361;49.540;8.390;2024-03-25T04:40:36;4.70;;;3.10;;
4694;SDS011;2361;49.540;8.390;2024-03-25T04:42:57;3.58;;;2.70;;
4694;SDS011;2361;49.540;8.390;2024-03-25T04:45:21;3.90;;;3.00;;
4694;SDS011;2361;49.540;8.390;2024-03-25T04:47:41;4.25;;;3.00;;
4694;SDS011;2361;49.540;8.390;2024-03-25T04:50:02;4.90;;;2.80;;
4694;SDS011;2361;49.540;8.390;2024-03-25T04:52:24;4.43;;;3.25;;
4694;SDS011;2361;49.540;8.390;2024-03-25T04:54:47;4.10;;;3.10;;
4694;SDS011;2361;49.540;8.390;2024-03-25T04:57:08;3.67;;;3.25;;
4694;SDS011;2361;49.540;8.390;2024-03-25T04:59:29;4.25;;;3.05;;
4694;SDS011;2361;49.540;8.390;2024-03-25T05:01:50;6.20;;;3.60;;
4694;SDS011;2361;49.540;8.390;2024-03-25T05:04:12;6.47;;;3.65;;
4694;SDS011;2361;49.540;8.390;2024-03-25T05:06:33;3.95;;;3.10;;
4694;SDS011;2361;49.540;8.390;2024-03-25T05:08:54;4.30;;;3.20;;
4694;SDS011;2361;49.540;8.390;2024-03-25T05:11:14;4.93;;;3.00;;
4694;SDS011;2361;49.540;8.390;2024-03-25T05:13:35;3.60;;;3.27;;
4694;SDS011;2361;49.540;8.390;2024-03-25T05:15:56;4.90;;;3.55;;
4694;SDS011;2361;49.540;8.390;2024-03-25T05:18:17;3.50;;;3.10;;
4694;SDS011;2361;49.540;8.390;2024-03-25T05:20:38;4.95;;;3.50;;
4694;SDS011;2361;49.540;8.390;2024-03-25T05:23:00;4.40;;;3.45;;
4694;SDS011;2361;49.540;8.390;2024-03-25T05:25:21;4.33;;;3.33;;
4694;SDS011;2361;49.540;8.390;2024-03-25T05:27:48;3.80;;;3.40;;
4694;SDS011;2361;49.540;8.390;2024-03-25T05:30:09;5.77;;;3.53;;
4694;SDS011;2361;49.540;8.390;2024-03-25T05:32:30;6.30;;;3.63;;
4694;SDS011;2361;49.540;8.390;2024-03-25T05:34:51;7.47;;;3.80;;
4694;SDS011;2361;49.540;8.390;2024-03-25T05:37:12;6.55;;;3.60;;
4694;SDS011;2361;49.540;8.390;2024-03-25T05:39:33;4.70;;;4.20;;
4694;SDS011;2361;49.540;8.390;2024-03-25T05:41:54;9.75;;;4.10;;
4694;SDS011;2361;49.540;8.390;2024-03-25T05:44:15;4.22;;;3.83;;
4694;SDS011;2361;49.540;8.390;2024-03-25T05:46:36;6.97;;;4.00;;
4694;SDS011;2361;49.540;8.390;2024-03-25T05:48:57;6.57;;;4.10;;
4694;SDS011;2361;49.540;8.390;2024-03-25T05:51:17;5.78;;;3.90;;
4694;SDS011;2361;49.540;8.390;2024-03-25T05:53:40;8.98;;;3.63;;
4694;SDS011;2361;49.540;8.390;2024-03-25T05:56:01;6.90;;;3.90;;
4694;SDS011;2361;49.540;8.390;2024-03-25T05:58:22;5.67;;;3.50;;
4694;SDS011;2361;49.540;8.390;2024-03-25T06:00:43;5.90;;;3.50;;
4694;SDS011;2361;49.540;8.390;2024-03-25T06:03:06;5.18;;;3.38;;
4694;SDS011;2361;49.540;8.390;2024-03-25T06:05:27;4.07;;;3.37;;
4694;SDS011;2361;49.540;8.390;2024-03-25T06:07:48;5.30;;;3.93;;
4694;SDS011;2361;49.540;8.390;2024-03-25T06:10:09;5.20;;;3.70;;
4694;SDS011;2361;49.540;8.390;2024-03-25T06:12:29;4.97;;;3.40;;
4694;SDS011;2361;49.540;8.390;2024-03-25T06:14:51;4.18;;;3.33;;
4694;SDS011;2361;49.540;8.390;2024-03-25T06:17:12;6.30;;;3.80;;
4694;SDS011;2361;49.540;8.390;2024-03-25T06:19:32;5.65;;;3.58;;
4694;SDS011;2361;49.540;8.390;2024-03-25T06:21:53;6.53;;;3.80;;
4694;SDS011;2361;49.540;8.390;2024-03-25T06:24:14;5.20;;;3.80;;
4694;SDS011;2361;49.540;8.390;2024-03-25T06:26:35;6.25;;;3.78;;
4694;SDS011;2361;49.540;8.390;2024-03-25T06:28:55;5.40;;;3.40;;
4694;SDS011;2361;49.540;8.390;2024-03-25T06:31:16;4.50;;;3.58;;
4694;SDS011;2361;49.540;8.390;2024-03-25T06:33:56;7.20;;;3.83;;
4694;SDS011;2361;49.540;8.390;2024-03-25T06:36:35;4.93;;;3.78;;
4694;SDS011;2361;49.540;8.390;2024-03-25T06:38:56;4.53;;;3.63;;
4694;SDS011;2361;49.540;8.390;2024-03-25T06:41:17;5.60;;;4.05;;
4694;SDS011;2361;49.540;8.390;2024-03-25T06:43:39;6.10;;;3.70;;
4694;SDS011;2361;49.540;8.390;2024-03-25T06:46:00;4.20;;;3.80;;
4694;SDS011;2361;49.540;8.390;2024-03-25T06:48:20;6.53;;;3.90;;
4694;SDS011;2361;49.540;8.390;2024-03-25T06:50:41;4.93;;;3.80;;
4694;SDS011;2361;49.540;8.390;2024-03-25T06:53:11;5.50;;;4.30;;
4694;SDS011;2361;49.540;8.390;2024-03-25T06:55:32;6.63;;;3.83;;
4694;SDS011;2361;49.540;8.390;2024-03-25T06:57:53;8.90;;;4.30;;
4694;SDS011;2361;49.540;8.390;2024-03-25T07:00:14;5.90;;;3.90;;
4694;SDS011;2361;49.540;8.390;2024-03-25T07:02:35;4.10;;;3.70;;
4694;SDS011;2361;49.540;8.390;2024-03-25T07:04:56;5.90;;;4.07;;
4694;SDS011;2361;49.540;8.390;2024-03-25T07:07:16;5.95;;;4.05;;
4694;SDS011;2361;49.540;8.390;2024-03-25T07:09:37;6.55;;;4.40;;
4694;SDS011;2361;49.540;8.390;2024-03-25T07:11:58;6.50;;;4.00;;
4694;SDS011;2361;49.540;8.390;2024-03-25T07:14:19;4.80;;;4.30;;
4694;SDS011;2361;49.540;8.390;2024-03-25T07:16:40;5.33;;;4.33;;
4694;SDS011;2361;49.540;8.390;2024-03-25T07:19:00;4.55;;;3.80;;
4694;SDS011;2361;49.540;8.390;2024-03-25T07:21:21;7.38;;;4.28;;
4694;SDS011;2361;49.540;8.390;2024-03-25T07:23:42;4.97;;;3.67;;
4694;SDS011;2361;49.540;8.390;2024-03-25T07:26:03;5.60;;;4.20;;
4694;SDS011;2361;49.540;8.390;2024-03-25T07:28:23;4.82;;;4.20;;
4694;SDS011;2361;49.540;8.390;2024-03-25T07:30:44;6.05;;;4.10;;
4694;SDS011;2361;49.540;8.390;2024-03-25T07:33:05;5.73;;;3.70;;
4694;SDS011;2361;49.540;8.390;2024-03-25T07:35:26;6.28;;;4.05;;
4694;SDS011;2361;49.540;8.390;2024-03-25T07:37:47;6.13;;;3.75;;
4694;SDS011;2361;49.540;8.390;2024-03-25T07:40:11;4.68;;;3.45;;
4694;SDS011;2361;49.540;8.390;2024-03-25T07:42:32;3.80;;;3.40;;
4694;SDS011;2361;49.540;8.390;2024-03-25T07:44:53;7.00;;;3.80;;
4694;SDS011;2361;49.540;8.390;2024-03-25T07:47:13;4.22;;;3.63;;
4694;SDS011;2361;49.540;8.390;2024-03-25T07:49:34;5.13;;;3.47;;
4694;SDS011;2361;49.540;8.390;2024-03-25T07:51:55;4.00;;;3.50;;
4694;SDS011;2361;49.540;8.390;2024-03-25T07:54:16;3.97;;;3.60;;
4694;SDS011;2361;49.540;8.390;2024-03-25T07:56:37;5.35;;;4.00;;
4694;SDS011;2361;49.540;8.390;2024-03-25T07:58:58;5.50;;;4.00;;
4694;SDS011;2361;49.540;8.390;2024-03-25T08:01:19;7.85;;;3.95;;
4694;SDS011;2361;49.540;8.390;2024-03-25T08:03:40;5.68;;;4.85;;
4694;SDS011;2361;49.540;8.390;2024-03-25T08:06:01;5.10;;;3.70;;
4694;SDS011;2361;49.540;8.390;2024-03-25T08:08:23;5.05;;;4.00;;
4694;SDS011;2361;49.540;8.390;2024-03-25T08:10:45;4.13;;;3.72;;
4694;SDS011;2361;49.540;8.390;2024-03-25T08:13:06;5.45;;;3.72;;
4694;SDS011;2361;49.540;8.390;2024-03-25T08:15:26;4.50;;;3.80;;
4694;SDS011;2361;49.540;8.390;2024-03-25T08:17:47;5.05;;;3.30;;
4694;SDS011;2361;49.540;8.390;2024-03-25T08:20:08;7.43;;;4.03;;
4694;SDS011;2361;49.540;8.390;2024-03-25T08:22:29;4.33;;;3.93;;
4694;SDS011;2361;49.540;8.390;2024-03-25T08:24:50;8.70;;;4.20;;
4694;SDS011;2361;49.540;8.390;2024-03-25T08:27:11;4.63;;;4.00;;
4694;SDS011;2361;49.540;8.390;2024-03-25T08:29:32;4.78;;;3.35;;
4694;SDS011;2361;49.540;8.390;2024-03-25T08:31:52;3.72;;;3.40;;
4694;SDS011;2361;49.540;8.390;2024-03-25T08:34:13;3.83;;;3.50;;
4694;SDS011;2361;49.540;8.390;2024-03-25T08:36:34;4.35;;;3.83;;
4694;SDS011;2361;49.540;8.390;2024-03-25T08:38:55;5.72;;;3.70;;
4694;SDS011;2361;49.540;8.390;2024-03-25T08:41:15;5.00;;;3.50;;
4694;SDS011;2361;49.540;8.390;2024-03-25T08:43:36;4.45;;;3.63;;
4694;SDS011;2361;49.540;8.390;2024-03-25T08:45:57;4.23;;;3.40;;
4694;SDS011;2361;49.540;8.390;2024-03-25T08:48:18;5.80;;;3.30;;
4694;SDS011;2361;49.540;8.390;2024-03-25T08:50:39;5.00;;;3.50;;
4694;SDS011;2361;49.540;8.390;2024-03-25T08:53:00;4.88;;;3.10;;
4694;SDS011;2361;49.540;8.390;2024-03-25T08:55:20;3.43;;;2.70;;
4694;SDS011;2361;49.540;8.390;2024-03-25T08:57:41;3.17;;;2.80;;
4694;SDS011;2361;49.540;8.390;2024-03-25T09:00:02;3.10;;;2.80;;
4694;SDS011;2361;49.540;8.390;2024-03-25T09:02:24;3.40;;;3.20;;
4694;SDS011;2361;49.540;8.390;2024-03-25T09:04:45;4.05;;;3.00;;
4694;SDS011;2361;49.540;8.390;2024-03-25T09:07:05;3.30;;;3.00;;
4694;SDS011;2361;49.540;8.390;2024-03-25T09:09:26;4.85;;;3.20;;
4694;SDS011;2361;49.540;8.390;2024-03-25T09:12:06;4.15;;;2.85;;
4694;SDS011;2361;49.540;8.390;2024-03-25T09:14:26;2.25;;;1.70;;
4694;SDS011;2361;49.540;8.390;2024-03-25T09:16:47;3.47;;;1.63;;
4694;SDS011;2361;49.540;8.390;2024-03-25T09:19:08;1.90;;;1.70;;
4694;SDS011;2361;49.540;8.390;2024-03-25T09:21:29;3.60;;;2.10;;
4694;SDS011;2361;49.540;8.390;2024-03-25T09:23:50;2.75;;;1.90;;
4694;SDS011;2361;49.540;8.390;2024-03-25T09:26:11;3.85;;;2.35;;
4694;SDS011;2361;49.540;8.390;2024-03-25T09:28:31;2.80;;;1.83;;
4694;SDS011;2361;49.540;8.390;2024-03-25T09:30:54;2.60;;;2.40;;
4694;SDS011;2361;49.540;8.390;2024-03-25T09:33:15;2.63;;;2.42;;
4694;SDS011;2361;49.540;8.390;2024-03-25T09:35:36;2.60;;;2.40;;
4694;SDS011;2361;49.540;8.390;2024-03-25T09:37:57;2.65;;;1.90;;
4694;SDS011;2361;49.540;8.390;2024-03-25T09:40:18;2.20;;;2.00;;
4694;SDS011;2361;49.540;8.390;2024-03-25T09:45:02;3.10;;;2.40;;
4694;SDS011;2361;49.540;8.390;2024-03-25T09:47:27;2.63;;;2.42;;
4694;SDS011;2361;49.540;8.390;2024-03-25T09:49:48;5.00;;;3.50;;
4694;SDS011;2361;49.540;8.390;2024-03-25T09:52:09;2.67;;;2.40;;
4694;SDS011;2361;49.540;8.390;2024-03-25T09:54:30;2.40;;;2.20;;
4694;SDS011;2361;49.540;8.390;2024-03-25T09:56:51;2.40;;;2.20;;
4694;SDS011;2361;49.540;8.390;2024-03-25T09:59:12;3.50;;;2.33;;
4694;SDS011;2361;49.540;8.390;2024-03-25T10:01:33;3.55;;;2.53;;
4694;SDS011;2361;49.540;8.390;2024-03-25T10:03:55;2.25;;;2.15;;
4694;SDS011;2361;49.540;8.390;2024-03-25T10:06:16;2.10;;;2.00;;
4694;SDS011;2361;49.540;8.390;2024-03-25T10:08:37;2.30;;;2.10;;
4694;SDS011;2361;49.540;8.390;2024-03-25T10:10:58;2.20;;;2.00;;
4694;SDS011;2361;49.540;8.390;2024-03-25T10:13:19;2.72;;;2.20;;
4694;SDS011;2361;49.540;8.390;2024-03-25T10:15:40;2.57;;;2.37;;
4694;SDS011;2361;49.540;8.390;2024-03-25T10:18:01;3.80;;;2.30;;
4694;SDS011;2361;49.540;8.390;2024-03-25T10:20:22;4.55;;;2.08;;
4694;SDS011;2361;49.540;8.390;2024-03-25T10:22:43;2.72;;;1.80;;
4694;SDS011;2361;49.540;8.390;2024-03-25T10:25:04;2.03;;;1.90;;
4694;SDS011;2361;49.540;8.390;2024-03-25T10:27:26;2.20;;;2.00;;
4694;SDS011;2361;49.540;8.390;2024-03-25T10:29:47;3.40;;;2.13;;
4694;SDS011;2361;49.540;8.390;2024-03-25T10:32:08;3.20;;;2.10;;
4694;SDS011;2361;49.540;8.390;2024-03-25T10:34:29;2.13;;;1.90;;
4694;SDS011;2361;49.540;8.390;2024-03-25T10:36:50;3.58;;;2.28;;
4694;SDS011;2361;49.540;8.390;2024-03-25T10:39:13;4.13;;;1.98;;
4694;SDS011;2361;49.540;8.390;2024-03-25T10:41:36;3.70;;;2.40;;
4694;SDS011;2361;49.540;8.390;2024-03-25T10:43:57;3.35;;;2.05;;
4694;SDS011;2361;49.540;8.390;2024-03-25T10:46:22;4.75;;;2.40;;
4694;SDS011;2361;49.540;8.390;2024-03-25T10:48:46;5.68;;;2.30;;
4694;SDS011;2361;49.540;8.390;2024-03-25T10:51:21;4.00;;;2.40;;
4694;SDS011;2361;49.540;8.390;2024-03-25T10:53:43;3.67;;;2.40;;
4694;SDS011;2361;49.540;8.390;2024-03-25T10:56:06;2.85;;;2.50;;
4694;SDS011;2361;49.540;8.390;2024-03-25T10:58:28;4.80;;;2.60;;
4694;SDS011;2361;49.540;8.390;2024-03-25T11:00:50;6.13;;;2.50;;
4694;SDS011;2361;49.540;8.390;2024-03-25T11:03:15;3.50;;;2.10;;
4694;SDS011;2361;49.540;8.390;2024-03-25T11:05:36;3.03;;;2.33;;
4694;SDS011;2361;49.540;8.390;2024-03-25T11:07:58;3.90;;;2.50;;
4694;SDS011;2361;49.540;8.390;2024-03-25T11:10:32;5.00;;;2.63;;
4694;SDS011;2361;49.540;8.390;2024-03-25T11:12:53;3.35;;;2.63;;
4694;SDS011;2361;49.540;8.390;2024-03-25T11:15:14;3.10;;;2.60;;
4694;SDS011;2361;49.540;8.390;2024-03-25T11:17:38;4.60;;;2.70;;
4694;SDS011;2361;49.540;8.390;2024-03-25T11:20:09;2.88;;;2.40;;
4694;SDS011;2361;49.540;8.390;2024-03-25T11:22:31;4.40;;;2.50;;
4694;SDS011;2361;49.540;8.390;2024-03-25T11:24:54;2.50;;;2.30;;
4694;SDS011;2361;49.540;8.390;2024-03-25T11:27:20;2.53;;;2.17;;
4694;SDS011;2361;49.540;8.390;2024-03-25T11:29:42;2.88;;;2.30;;
4694;SDS011;2361;49.540;8.390;2024-03-25T11:32:03;2.80;;;2.60;;
4694;SDS011;2361;49.540;8.390;2024-03-25T11:34:25;3.50;;;3.08;;
4694;SDS011;2361;49.540;8.390;2024-03-25T11:36:46;5.47;;;2.60;;
4694;SDS011;2361;49.540;8.390;2024-03-25T11:39:08;3.70;;;2.60;;
4694;SDS011;2361;49.540;8.390;2024-03-25T11:41:31;2.50;;;2.33;;
4694;SDS011;2361;49.540;8.390;2024-03-25T11:43:52;2.53;;;2.20;;
4694;SDS011;2361;49.540;8.390;2024-03-25T11:46:16;4.47;;;2.93;;
4694;SDS011;2361;49.540;8.390;2024-03-25T11:48:38;4.93;;;3.20;;
4694;SDS011;2361;49.540;8.390;2024-03-25T11:51:00;3.05;;;2.75;;
4694;SDS011;2361;49.540;8.390;2024-03-25T11:53:21;3.50;;;2.83;;
4694;SDS011;2361;49.540;8.390;2024-03-25T11:55:45;2.77;;;2.57;;
4694;SDS011;2361;49.540;8.390;2024-03-25T11:58:07;5.25;;;3.03;;
4694;SDS011;2361;49.540;8.390;2024-03-25T12:00:28;3.92;;;3.20;;
4694;SDS011;2361;49.540;8.390;2024-03-25T12:02:49;3.40;;;3.10;;
4694;SDS011;2361;49.540;8.390;2024-03-25T12:05:10;4.30;;;2.80;;
4694;SDS011;2361;49.540;8.390;2024-03-25T12:07:32;4.85;;;2.90;;
4694;SDS011;2361;49.540;8.390;2024-03-25T12:09:53;4.63;;;3.15;;
4694;SDS011;2361;49.540;8.390;2024-03-25T12:12:33;2.92;;;2.50;;
4694;SDS011;2361;49.540;8.390;2024-03-25T12:14:55;5.95;;;3.20;;
4694;SDS011;2361;49.540;8.390;2024-03-25T12:17:17;4.15;;;3.25;;
4694;SDS011;2361;49.540;8.390;2024-03-25T12:19:38;3.00;;;2.70;;
4694;SDS011;2361;49.540;8.390;2024-03-25T12:22:01;3.70;;;2.60;;
4694;SDS011;2361;49.540;8.390;2024-03-25T12:24:26;5.10;;;3.40;;
4694;SDS011;2361;49.540;8.390;2024-03-25T12:26:47;5.20;;;3.20;;
4694;SDS011;2361;49.540;8.390;2024-03-25T12:29:07;3.42;;;3.13;;
4694;SDS011;2361;49.540;8.390;2024-03-25T12:31:28;3.90;;;3.50;;
4694;SDS011;2361;49.540;8.390;2024-03-25T12:33:49;4.23;;;3.20;;
4694;SDS011;2361;49.540;8.390;2024-03-25T12:36:13;2.93;;;2.63;;
4694;SDS011;2361;49.540;8.390;2024-03-25T12:38:34;3.58;;;3.15;;
4694;SDS011;2361;49.540;8.390;2024-03-25T12:41:02;3.10;;;2.20;;
4694;SDS011;2361;49.540;8.390;2024-03-25T12:43:33;3.40;;;2.70;;
4694;SDS011;2361;49.540;8.390;2024-03-25T12:45:55;3.75;;;2.60;;
4694;SDS011;2361;49.540;8.390;2024-03-25T12:48:16;3.15;;;2.80;;
4694;SDS011;2361;49.540;8.390;2024-03-25T12:50:37;4.47;;;3.20;;
4694;SDS011;2361;49.540;8.390;2024-03-25T12:52:58;3.60;;;3.30;;
4694;SDS011;2361;49.540;8.390;2024-03-25T12:55:18;5.97;;;3.50;;
4694;SDS011;2361;49.540;8.390;2024-03-25T12:57:39;4.30;;;3.17;;
4694;SDS011;2361;49.540;8.390;2024-03-25T13:00:02;3.28;;;2.97;;
4694;SDS011;2361;49.540;8.390;2024-03-25T13:02:28;3.70;;;3.20;;
4694;SDS011;2361;49.540;8.390;2024-03-25T13:04:48;6.55;;;3.60;;
4694;SDS011;2361;49.540;8.390;2024-03-25T13:07:09;4.03;;;3.50;;
4694;SDS011;2361;49.540;8.390;2024-03-25T13:09:30;3.90;;;3.28;;
4694;SDS011;2361;49.540;8.390;2024-03-25T13:11:51;3.70;;;3.40;;
4694;SDS011;2361;49.540;8.390;2024-03-25T13:14:12;3.50;;;3.30;;
4694;SDS011;2361;49.540;8.390;2024-03-25T13:16:33;3.50;;;3.10;;
4694;SDS011;2361;49.540;8.390;2024-03-25T13:18:54;3.33;;;2.90;;
4694;SDS011;2361;49.540;8.390;2024-03-25T13:21:15;2.73;;;2.03;;
4694;SDS011;2361;49.540;8.390;2024-03-25T13:23:35;5.17;;;2.53;;
4694;SDS011;2361;49.540;8.390;2024-03-25T13:25:56;1.87;;;1.50;;
4694;SDS011;2361;49.540;8.390;2024-03-25T13:28:17;1.83;;;1.60;;
4694;SDS011;2361;49.540;8.390;2024-03-25T13:30:38;2.30;;;1.77;;
4694;SDS011;2361;49.540;8.390;2024-03-25T13:32:59;2.87;;;2.50;;
4694;SDS011;2361;49.540;8.390;2024-03-25T13:35:19;2.70;;;1.70;;
4694;SDS011;2361;49.540;8.390;2024-03-25T13:37:40;4.50;;;2.50;;
4694;SDS011;2361;49.540;8.390;2024-03-25T13:40:01;2.10;;;1.90;;
4694;SDS011;2361;49.540;8.390;2024-03-25T13:42:22;4.15;;;1.83;;
4694;SDS011;2361;49.540;8.390;2024-03-25T13:44:43;1.90;;;1.70;;
4694;SDS011;2361;49.540;8.390;2024-03-25T13:47:03;1.60;;;1.50;;
4694;SDS011;2361;49.540;8.390;2024-03-25T13:49:24;3.30;;;2.30;;
4694;SDS011;2361;49.540;8.390;2024-03-25T13:51:45;3.50;;;2.58;;
4694;SDS011;2361;49.540;8.390;2024-03-25T13:54:06;4.70;;;3.30;;
4694;SDS011;2361;49.540;8.390;2024-03-25T13:56:27;9.50;;;5.03;;
4694;SDS011;2361;49.540;8.390;2024-03-25T13:58:48;4.20;;;2.60;;
4694;SDS011;2361;49.540;8.390;2024-03-25T14:01:09;3.70;;;2.90;;
4694;SDS011;2361;49.540;8.390;2024-03-25T14:03:30;3.55;;;2.25;;
4694;SDS011;2361;49.540;8.390;2024-03-25T14:05:50;3.28;;;2.20;;
4694;SDS011;2361;49.540;8.390;2024-03-25T14:08:11;1.60;;;1.50;;
4694;SDS011;2361;49.540;8.390;2024-03-25T14:10:32;1.10;;;1.00;;
4694;SDS011;2361;49.540;8.390;2024-03-25T14:12:53;1.02;;;1.02;;
4694;SDS011;2361;49.540;8.390;2024-03-25T14:15:14;1.67;;;0.80;;
4694;SDS011;2361;49.540;8.390;2024-03-25T14:17:34;1.27;;;1.27;;
4694;SDS011;2361;49.540;8.390;2024-03-25T14:19:56;1.23;;;1.13;;
4694;SDS011;2361;49.540;8.390;2024-03-25T14:22:17;0.90;;;0.90;;
4694;SDS011;2361;49.540;8.390;2024-03-25T14:24:37;2.10;;;1.10;;
4694;SDS011;2361;49.540;8.390;2024-03-25T14:26:58;1.60;;;1.50;;
4694;SDS011;2361;49.540;8.390;2024-03-25T14:29:19;0.93;;;0.70;;
4694;SDS011;2361;49.540;8.390;2024-03-25T14:31:40;2.30;;;1.40;;
4694;SDS011;2361;49.540;8.390;2024-03-25T14:34:00;2.73;;;1.27;;
4694;SDS011;2361;49.540;8.390;2024-03-25T14:36:21;1.77;;;1.10;;
4694;SDS011;2361;49.540;8.390;2024-03-25T14:38:43;1.30;;;1.10;;
4694;SDS011;2361;49.540;8.390;2024-03-25T14:41:03;1.20;;;1.10;;